Belmonte Quifes — EB2760 — position and weather

sailwx.info

Track history (hours):
 
Tides and Currents Weather Stations Pressure Air Temp Water Temp Dewpoint Dewpoint Depression Visibility Wind Speed Wind Dir Waves Ship Positions

Belmonte Quifes

Last reported at 2018-Jul-20 21:49 UTC. Time now 2018-Jul-21 13:45 UTC.
Position N 39°21' E 002°43'.

Length 11 m.

Type: Fishing. MMSI: 224432460.

Date/timePositionNaut miles runAvg speedWind from/ knotsBaromVisibWave heightAir tempDewpointWater temp
2018-Jul-20 21:49N 39°21' E 002°43'2 6.7
2018-Jul-20 21:30N 39°22' E 002°42'3 6.6
2018-Jul-20 20:59N 39°26' E 002°40'3 6.5
2018-Jul-20 20:30N 39°29' E 002°39'3 6.7
2018-Jul-20 20:00N 39°32' E 002°39'2 3.8
2018-Jul-20 19:29N 39°34' E 002°38'0 0.0
2018-Jul-20 18:59N 39°34' E 002°38'0 0.0
2018-Jul-20 18:29N 39°34' E 002°38'0 0.0
2018-Jul-20 17:59N 39°34' E 002°38'0 0.0
2018-Jul-20 17:29N 39°34' E 002°38'0 0.0
2018-Jul-20 16:59N 39°34' E 002°38'0 0.9
2018-Jul-20 16:30N 39°34' E 002°38'4 7.1
2018-Jul-20 16:00N 39°30' E 002°39'4 7.7
2018-Jul-20 15:30N 39°26' E 002°40'4 7.6
2018-Jul-20 14:55N 39°22' E 002°42'39 3.5
2018-Jul-20 03:37N 38°44' E 002°51'2 1.0
2018-Jul-20 01:40N 38°42' E 002°50'12 3.1
2018-Jul-19 21:44N 38°45' E 003°05'2 6.7
2018-Jul-19 21:25N 38°46' E 003°07'3 6.8
2018-Jul-19 20:59N 38°48' E 003°10'7 1.3
2018-Jul-19 15:30N 38°49' E 003°01'8 0.6
2018-Jul-19 02:50N 38°42' E 002°57'0 0.1
2018-Jul-19 02:30N 38°42' E 002°57'0 0.5
2018-Jul-19 02:00N 38°42' E 002°56'0 0.5
2018-Jul-19 01:29N 38°42' E 002°57'0 0.3
2018-Jul-19 00:52N 38°42' E 002°57'1 2.3
2018-Jul-19 00:20N 38°43' E 002°56'1 3.1
2018-Jul-19 00:00N 38°44' E 002°55'3 6.8
2018-Jul-18 23:30N 38°47' E 002°53'5 5.2
2018-Jul-18 22:31N 38°52' E 002°51'0 7.0
2018-Jul-18 22:30N 38°52' E 002°52'9 3.9
2018-Jul-18 20:17N 38°60' E 002°56'2 7.1
2018-Jul-18 19:58N 39°02' E 002°56'18 0.4
2018-Jul-17 02:52N 39°16' E 002°42'2 6.0
2018-Jul-17 02:29N 39°18' E 002°41'3 6.0
2018-Jul-17 02:00N 39°21' E 002°40'3 6.0
2018-Jul-17 01:30N 39°24' E 002°40'3 6.0
2018-Jul-17 01:00N 39°27' E 002°39'3 6.0
2018-Jul-17 00:30N 39°30' E 002°39'4 3.9
2018-Jul-16 23:30N 39°34' E 002°38'0 0.0
2018-Jul-16 23:00N 39°34' E 002°38'0 0.0
2018-Jul-16 22:28N 39°34' E 002°38'0 0.0
2018-Jul-16 21:58N 39°34' E 002°38'0 0.0
2018-Jul-16 21:28N 39°34' E 002°38'0 0.0
2018-Jul-16 20:58N 39°34' E 002°38'0 0.0
2018-Jul-16 20:28N 39°34' E 002°38'0 0.0
2018-Jul-16 19:58N 39°34' E 002°38'0 0.0
2018-Jul-16 19:28N 39°34' E 002°38'0 0.0
2018-Jul-16 18:58N 39°34' E 002°38'0 0.0
2018-Jul-16 18:28N 39°34' E 002°38'0 0.0
2018-Jul-16 17:58N 39°34' E 002°38'0 0.0
2018-Jul-16 17:28N 39°34' E 002°38'0 0.0
2018-Jul-16 16:58N 39°34' E 002°38'0 0.0
2018-Jul-16 16:28N 39°34' E 002°38'0 0.0
2018-Jul-16 15:58N 39°34' E 002°38'0 0.0
2018-Jul-15 00:19N 39°34' E 002°38'1 2.3
2018-Jul-15 00:00N 39°33' E 002°38'4 7.0
2018-Jul-14 23:30N 39°30' E 002°40'4 7.2
2018-Jul-14 23:00N 39°27' E 002°42'3 6.8
2018-Jul-14 22:30N 39°24' E 002°44'3 6.5
2018-Jul-14 21:59N 39°21' E 002°47'9 6.7
2018-Jul-14 20:40N 39°16' E 002°56'1 6.6
2018-Jul-14 20:30N 39°15' E 002°57'3 6.3
2018-Jul-14 20:00N 39°13' E 003°00'3 6.2
2018-Jul-14 19:28N 39°11' E 003°03'9 2.0
2018-Jul-14 14:58N 39°03' E 003°09'  
2018-Jul-11 18:53N 38°53' E 002°59'1 1.6
2018-Jul-11 18:30N 38°53' E 002°59'1 1.6
2018-Jul-11 17:57N 38°54' E 002°58'1 1.6
2018-Jul-11 17:18N 38°55' E 002°57'26 4.3
2018-Jul-11 11:10N 39°19' E 002°44'1 6.4
2018-Jul-11 10:59N 39°20' E 002°44'3 6.3
2018-Jul-11 10:30N 39°23' E 002°42'3 6.2
2018-Jul-11 10:00N 39°26' E 002°41'3 6.2
2018-Jul-11 09:30N 39°29' E 002°40'3 6.5
2018-Jul-11 09:00N 39°32' E 002°39'2 4.0
2018-Jul-11 08:30N 39°34' E 002°38'0 0.1
2018-Jul-11 08:00N 39°34' E 002°38'0 0.0
2018-Jul-11 07:30N 39°34' E 002°38'0 0.2
2018-Jul-11 07:00N 39°34' E 002°38'2 3.3
2018-Jul-11 06:30N 39°32' E 002°39'2 4.1
2018-Jul-11 06:00N 39°30' E 002°39'2 4.0
2018-Jul-11 05:30N 39°28' E 002°40'2 4.0
2018-Jul-11 05:00N 39°27' E 002°41'2 4.1
2018-Jul-11 04:30N 39°25' E 002°42'2 4.1
2018-Jul-11 03:59N 39°23' E 002°43'2 4.0
2018-Jul-11 03:28N 39°21' E 002°45'2 3.8
2018-Jul-11 03:00N 39°20' E 002°47'2 3.8
2018-Jul-11 02:30N 39°19' E 002°48'2 1.1
2018-Jul-11 00:18N 39°17' E 002°51'2 7.0
2018-Jul-10 23:58N 39°18' E 002°48'5 6.9
2018-Jul-10 23:13N 39°20' E 002°42'1 7.0
2018-Jul-10 23:00N 39°22' E 002°42'4 7.0
2018-Jul-10 22:28N 39°25' E 002°41'3 7.0
2018-Jul-10 21:59N 39°29' E 002°41'  
Track history (hours):
 
Tides and Currents Weather Stations Pressure Air Temp Water Temp Dewpoint Dewpoint Depression Visibility Wind Speed Wind Dir Waves Ship Positions

Belmonte Quifes

Last reported at 2018-Jul-20 21:49 UTC. Time now 2018-Jul-21 13:45 UTC.
Position N 39°21' E 002°43'.

Length 11 m.

Type: Fishing. MMSI: 224432460.

Date/timePositionNaut miles runAvg speedWind from/ knotsBaromVisibWave heightAir tempDewpointWater temp
2018-Jul-20 21:49N 39°21' E 002°43'2 6.7
2018-Jul-20 21:30N 39°22' E 002°42'3 6.6
2018-Jul-20 20:59N 39°26' E 002°40'3 6.5
2018-Jul-20 20:30N 39°29' E 002°39'3 6.7
2018-Jul-20 20:00N 39°32' E 002°39'2 3.8
2018-Jul-20 19:29N 39°34' E 002°38'0 0.0
2018-Jul-20 18:59N 39°34' E 002°38'0 0.0
2018-Jul-20 18:29N 39°34' E 002°38'0 0.0
2018-Jul-20 17:59N 39°34' E 002°38'0 0.0
2018-Jul-20 17:29N 39°34' E 002°38'0 0.0
2018-Jul-20 16:59N 39°34' E 002°38'0 0.9
2018-Jul-20 16:30N 39°34' E 002°38'4 7.1
2018-Jul-20 16:00N 39°30' E 002°39'4 7.7
2018-Jul-20 15:30N 39°26' E 002°40'4 7.6
2018-Jul-20 14:55N 39°22' E 002°42'39 3.5
2018-Jul-20 03:37N 38°44' E 002°51'2 1.0
2018-Jul-20 01:40N 38°42' E 002°50'12 3.1
2018-Jul-19 21:44N 38°45' E 003°05'2 6.7
2018-Jul-19 21:25N 38°46' E 003°07'3 6.8
2018-Jul-19 20:59N 38°48' E 003°10'7 1.3
2018-Jul-19 15:30N 38°49' E 003°01'8 0.6
2018-Jul-19 02:50N 38°42' E 002°57'0 0.1
2018-Jul-19 02:30N 38°42' E 002°57'0 0.5
2018-Jul-19 02:00N 38°42' E 002°56'0 0.5
2018-Jul-19 01:29N 38°42' E 002°57'0 0.3
2018-Jul-19 00:52N 38°42' E 002°57'1 2.3
2018-Jul-19 00:20N 38°43' E 002°56'1 3.1
2018-Jul-19 00:00N 38°44' E 002°55'3 6.8
2018-Jul-18 23:30N 38°47' E 002°53'5 5.2
2018-Jul-18 22:31N 38°52' E 002°51'0 7.0
2018-Jul-18 22:30N 38°52' E 002°52'9 3.9
2018-Jul-18 20:17N 38°60' E 002°56'2 7.1
2018-Jul-18 19:58N 39°02' E 002°56'18 0.4
2018-Jul-17 02:52N 39°16' E 002°42'2 6.0
2018-Jul-17 02:29N 39°18' E 002°41'3 6.0
2018-Jul-17 02:00N 39°21' E 002°40'3 6.0
2018-Jul-17 01:30N 39°24' E 002°40'3 6.0
2018-Jul-17 01:00N 39°27' E 002°39'3 6.0
2018-Jul-17 00:30N 39°30' E 002°39'4 3.9
2018-Jul-16 23:30N 39°34' E 002°38'0 0.0
2018-Jul-16 23:00N 39°34' E 002°38'0 0.0
2018-Jul-16 22:28N 39°34' E 002°38'0 0.0
2018-Jul-16 21:58N 39°34' E 002°38'0 0.0
2018-Jul-16 21:28N 39°34' E 002°38'0 0.0
2018-Jul-16 20:58N 39°34' E 002°38'0 0.0
2018-Jul-16 20:28N 39°34' E 002°38'0 0.0
2018-Jul-16 19:58N 39°34' E 002°38'0 0.0
2018-Jul-16 19:28N 39°34' E 002°38'0 0.0
2018-Jul-16 18:58N 39°34' E 002°38'0 0.0
2018-Jul-16 18:28N 39°34' E 002°38'0 0.0
2018-Jul-16 17:58N 39°34' E 002°38'0 0.0
2018-Jul-16 17:28N 39°34' E 002°38'0 0.0
2018-Jul-16 16:58N 39°34' E 002°38'0 0.0
2018-Jul-16 16:28N 39°34' E 002°38'0 0.0
2018-Jul-16 15:58N 39°34' E 002°38'0 0.0
2018-Jul-15 00:19N 39°34' E 002°38'1 2.3
2018-Jul-15 00:00N 39°33' E 002°38'4 7.0
2018-Jul-14 23:30N 39°30' E 002°40'4 7.2
2018-Jul-14 23:00N 39°27' E 002°42'3 6.8
2018-Jul-14 22:30N 39°24' E 002°44'3 6.5
2018-Jul-14 21:59N 39°21' E 002°47'9 6.7
2018-Jul-14 20:40N 39°16' E 002°56'1 6.6
2018-Jul-14 20:30N 39°15' E 002°57'3 6.3
2018-Jul-14 20:00N 39°13' E 003°00'3 6.2
2018-Jul-14 19:28N 39°11' E 003°03'9 2.0
2018-Jul-14 14:58N 39°03' E 003°09'  
2018-Jul-11 18:53N 38°53' E 002°59'1 1.6
2018-Jul-11 18:30N 38°53' E 002°59'1 1.6
2018-Jul-11 17:57N 38°54' E 002°58'1 1.6
2018-Jul-11 17:18N 38°55' E 002°57'26 4.3
2018-Jul-11 11:10N 39°19' E 002°44'1 6.4
2018-Jul-11 10:59N 39°20' E 002°44'3 6.3
2018-Jul-11 10:30N 39°23' E 002°42'3 6.2
2018-Jul-11 10:00N 39°26' E 002°41'3 6.2
2018-Jul-11 09:30N 39°29' E 002°40'3 6.5
2018-Jul-11 09:00N 39°32' E 002°39'2 4.0
2018-Jul-11 08:30N 39°34' E 002°38'0 0.1
2018-Jul-11 08:00N 39°34' E 002°38'0 0.0
2018-Jul-11 07:30N 39°34' E 002°38'0 0.2
2018-Jul-11 07:00N 39°34' E 002°38'2 3.3
2018-Jul-11 06:30N 39°32' E 002°39'2 4.1
2018-Jul-11 06:00N 39°30' E 002°39'2 4.0
2018-Jul-11 05:30N 39°28' E 002°40'2 4.0
2018-Jul-11 05:00N 39°27' E 002°41'2 4.1
2018-Jul-11 04:30N 39°25' E 002°42'2 4.1
2018-Jul-11 03:59N 39°23' E 002°43'2 4.0
2018-Jul-11 03:28N 39°21' E 002°45'2 3.8
2018-Jul-11 03:00N 39°20' E 002°47'2 3.8
2018-Jul-11 02:30N 39°19' E 002°48'2 1.1
2018-Jul-11 00:18N 39°17' E 002°51'2 7.0
2018-Jul-10 23:58N 39°18' E 002°48'5 6.9
2018-Jul-10 23:13N 39°20' E 002°42'1 7.0
2018-Jul-10 23:00N 39°22' E 002°42'4 7.0
2018-Jul-10 22:28N 39°25' E 002°41'3 7.0
2018-Jul-10 21:59N 39°29' E 002°41'  

Dump ship's entire track history